createdAt,value
2022-11-25T00:05:21.610Z,85.89
2022-11-25T00:11:44.661Z,85.77
2022-11-25T00:18:04.590Z,85.95
2022-11-25T00:24:27.597Z,85.98
2022-11-25T00:30:47.583Z,86.03
2022-11-25T00:37:10.648Z,86.11
2022-11-25T00:43:30.572Z,86.68
2022-11-25T00:49:53.610Z,87.12
2022-11-25T00:56:13.646Z,87.37
2022-11-25T01:02:36.667Z,87.79
2022-11-25T01:08:56.613Z,87.63
2022-11-25T01:15:19.637Z,87.42
2022-11-25T01:21:39.587Z,87.43
2022-11-25T01:28:02.621Z,87.36
2022-11-25T01:34:22.582Z,87.35
2022-11-25T01:40:45.612Z,87.18
2022-11-25T01:47:05.643Z,87.14
2022-11-25T01:53:28.583Z,87.28
2022-11-25T01:59:48.553Z,87.18
2022-11-25T02:06:11.570Z,86.93
2022-11-25T02:12:31.611Z,86.81
2022-11-25T02:18:54.551Z,86.65
2022-11-25T02:25:14.619Z,86.52
2022-11-25T02:31:37.674Z,86.68
2022-11-25T02:37:57.641Z,86.48
2022-11-25T02:44:20.575Z,86.36
2022-11-25T02:50:40.618Z,86.3
2022-11-25T02:57:03.590Z,86.25
2022-11-25T03:03:23.592Z,86.21
2022-11-25T03:09:46.581Z,86.02
2022-11-25T03:16:06.656Z,86.11
2022-11-25T03:22:29.618Z,86.22
2022-11-25T03:28:49.603Z,86.08
2022-11-25T03:35:12.589Z,86.1
2022-11-25T03:41:32.616Z,86.22
2022-11-25T03:47:55.597Z,86.01
2022-11-25T03:54:15.608Z,85.55
2022-11-25T04:00:38.586Z,85.01
2022-11-25T04:06:58.644Z,84.73
2022-11-25T04:13:21.599Z,84.59
2022-11-25T04:19:41.619Z,84.51
2022-11-25T04:37:15.497Z,84.36
2022-11-25T04:43:35.565Z,84.35
2022-11-25T04:49:58.592Z,85.25
2022-11-25T04:56:18.682Z,85.82
2022-11-25T05:02:41.579Z,86.48
2022-11-25T05:09:01.632Z,87.31
2022-11-25T05:15:24.583Z,88.27
2022-11-25T05:21:44.627Z,88.61
2022-11-25T05:28:07.603Z,88.93
2022-11-25T05:34:27.596Z,89.04
2022-11-25T05:40:50.680Z,89.12
2022-11-25T05:47:10.563Z,89.32
2022-11-25T05:53:33.617Z,89.73
2022-11-25T05:59:53.588Z,89.93
2022-11-25T06:06:16.588Z,90.19
2022-11-25T06:12:36.611Z,90.35
2022-11-25T06:18:59.596Z,90.52
2022-11-25T06:25:19.569Z,90.66
2022-11-25T06:31:42.712Z,90.68
2022-11-25T06:38:02.575Z,90.77
2022-11-25T06:44:25.602Z,90.85
2022-11-25T06:50:45.611Z,90.92
2022-11-25T06:57:08.602Z,90.99
2022-11-25T07:03:28.631Z,91.02
2022-11-25T07:09:51.596Z,91.04
2022-11-25T07:16:11.767Z,91.03
2022-11-25T07:22:34.606Z,91.01
2022-11-25T07:28:54.633Z,90.92
2022-11-25T07:35:17.578Z,90.82
2022-11-25T07:41:37.592Z,90.82
2022-11-25T07:48:00.647Z,90.49
2022-11-25T07:54:20.566Z,90.4
2022-11-25T08:00:43.600Z,90.01
2022-11-25T08:07:03.652Z,89.7
2022-11-25T08:13:26.588Z,89.6
2022-11-25T08:19:46.612Z,90.12
2022-11-25T08:26:09.619Z,90.22
2022-11-25T08:32:29.602Z,89.98
2022-11-25T08:38:52.620Z,89.86
2022-11-25T08:45:12.592Z,89.53
2022-11-25T08:51:35.638Z,89.53
2022-11-25T08:57:55.596Z,89.31
2022-11-25T09:04:18.586Z,89.18
2022-11-25T09:10:38.643Z,89.02
2022-11-25T09:17:01.593Z,88.28
2022-11-25T09:23:21.817Z,87.5
2022-11-25T09:29:44.592Z,87.35
2022-11-25T09:52:35.101Z,86.96
2022-11-25T09:58:54.567Z,86.01
2022-11-25T10:05:17.581Z,85.25
2022-11-25T10:11:37.965Z,85.02
2022-11-25T10:18:00.606Z,83.35
2022-11-25T10:24:20.690Z,81.15
2022-11-25T10:30:43.613Z,82.59
2022-11-25T10:37:03.604Z,78.11
2022-11-25T10:43:31.467Z,79.78
2022-11-25T10:49:46.614Z,76.47
2022-11-25T10:56:09.572Z,74.79
2022-11-25T11:02:29.685Z,74.12
2022-11-25T11:08:52.592Z,73.39
2022-11-25T11:15:12.724Z,73.38
2022-11-25T11:21:35.731Z,72.76
2022-11-25T11:27:55.599Z,70.89
2022-11-25T11:34:18.623Z,71.76
2022-11-25T11:40:38.603Z,71.9
2022-11-25T11:47:01.793Z,71.56
2022-11-25T11:53:21.567Z,71.03
2022-11-25T11:59:44.749Z,71.46
2022-11-25T12:06:04.618Z,71.11
2022-11-25T12:12:27.587Z,71.25
2022-11-25T12:18:47.582Z,71
2022-11-25T12:25:10.621Z,71.16
2022-11-25T12:31:30.663Z,70
2022-11-25T12:37:53.580Z,70.11
2022-11-25T12:44:13.623Z,69.92
2022-11-25T12:50:36.595Z,70.22
2022-11-25T12:56:56.571Z,70.09
2022-11-25T13:03:19.634Z,69.73
2022-11-25T13:09:39.566Z,69.5
2022-11-25T13:16:03.128Z,69.57
2022-11-25T13:22:22.583Z,69.02
2022-11-25T13:28:45.584Z,67.7
2022-11-25T13:35:05.587Z,67.37
2022-11-25T13:41:28.622Z,67.03
2022-11-25T13:47:48.585Z,66.86
2022-11-25T13:54:11.599Z,67.17
2022-11-25T14:00:31.608Z,67.84
2022-11-25T14:06:54.565Z,68.39
2022-11-25T14:13:14.559Z,68.37
2022-11-25T14:19:53.105Z,68.58
2022-11-25T14:25:57.595Z,69.08
2022-11-25T14:32:20.610Z,69.94
2022-11-25T14:56:01.526Z,70.75
2022-11-25T15:02:21.615Z,71.3
2022-11-25T15:08:44.575Z,71.41
2022-11-25T15:15:04.606Z,71.82
2022-11-25T15:21:27.564Z,72.24
2022-11-25T15:27:47.581Z,73.66
2022-11-25T15:34:10.590Z,73.99
2022-11-25T15:40:30.590Z,74.32
2022-11-25T15:46:53.564Z,74.64
2022-11-25T15:53:13.600Z,74.42
2022-11-25T15:59:36.826Z,74.25
2022-11-25T16:05:56.596Z,74.08
2022-11-25T16:12:19.618Z,74.28
2022-11-25T16:18:40.874Z,74.22
2022-11-25T16:25:03.054Z,74.26
2022-11-25T16:31:22.717Z,74.42
2022-11-25T16:37:49.047Z,74.28
2022-11-25T16:44:08.693Z,74.39
2022-11-25T16:50:28.621Z,74.58
2022-11-25T16:56:48.573Z,74.74
2022-11-25T17:03:11.686Z,74.87
2022-11-25T17:09:31.606Z,74.92
2022-11-25T17:15:54.673Z,75.05
2022-11-25T17:22:14.624Z,75.25
2022-11-25T17:28:37.576Z,75.64
2022-11-25T17:34:57.598Z,75.79
2022-11-25T17:41:20.591Z,75.94
2022-11-25T17:47:40.625Z,76.06
2022-11-25T17:54:03.605Z,76.51
2022-11-25T18:00:23.596Z,76.83
2022-11-25T18:06:46.638Z,77.05
2022-11-25T18:13:06.576Z,77.57
2022-11-25T18:19:29.650Z,77.27
2022-11-25T18:25:49.598Z,77.44
2022-11-25T18:32:12.609Z,77.6
2022-11-25T18:38:32.615Z,77.75
2022-11-25T18:44:55.633Z,77.82
2022-11-25T18:51:15.581Z,77.78
2022-11-25T18:57:38.608Z,77.83
2022-11-25T19:03:58.601Z,77.9
2022-11-25T19:10:21.585Z,77.88
2022-11-25T19:16:41.654Z,78.13
2022-11-25T19:23:04.622Z,78.28
2022-11-25T19:29:24.581Z,78.46
2022-11-25T19:35:47.585Z,78.76
2022-11-25T19:42:07.591Z,78.86
2022-11-25T19:48:30.582Z,78.97
2022-11-25T19:54:50.591Z,79.1
2022-11-25T20:01:13.804Z,79.34
2022-11-25T20:17:21.600Z,80.23
2022-11-25T20:23:44.667Z,80.3
2022-11-25T20:30:04.629Z,80.46
2022-11-25T20:36:27.666Z,80.75
2022-11-25T20:42:47.585Z,80.79
2022-11-25T20:49:10.705Z,80.58
2022-11-25T20:55:30.600Z,80.85
2022-11-25T21:01:53.716Z,81.67
2022-11-25T21:08:13.618Z,82.52
2022-11-25T21:14:36.806Z,82.8
2022-11-25T21:20:56.626Z,83
2022-11-25T21:27:19.563Z,83.63
2022-11-25T21:33:39.611Z,84.19
2022-11-25T21:40:02.613Z,84.59
2022-11-25T21:46:22.623Z,85.17
2022-11-25T21:52:45.722Z,85.14
2022-11-25T21:59:05.618Z,85.35
2022-11-25T22:05:28.616Z,85.09
2022-11-25T22:11:48.607Z,84.65
2022-11-25T22:18:11.580Z,84.27
2022-11-25T22:24:31.604Z,84.3
2022-11-25T22:30:54.605Z,84.24
2022-11-25T22:37:14.603Z,83.94
2022-11-25T22:43:37.619Z,85.13
2022-11-25T22:49:57.603Z,85.33
2022-11-25T22:56:20.599Z,85.67
2022-11-25T23:20:34.600Z,85.22
2022-11-25T23:26:54.626Z,85.17
2022-11-25T23:33:17.568Z,85.06
2022-11-25T23:39:37.619Z,85.03
2022-11-25T23:46:00.697Z,84.91
2022-11-25T23:52:20.576Z,85.29
2022-11-25T23:58:43.680Z,85.65
